• Join FlightAware (Why Join?)
  • Login
  • US Flag 
02:20AM EDT


 

Airport Tracker/Info


-or-


 

Live Flight TrackerFlight Track Log ✈ SKW6528 ✈ 30-Apr-2013 ✈ KBFL - KDEN

Flight Track Log - Related Links

Times and Time Zones

All times are in EDT time to prevent confusion due to time zone crossing. See the SKW6528 flight status page for this flight to view local times or setup timezone preferences in your user account.

Time Position Orientation Groundspeed Altitude Reporting Facility
EDT Latitude Longitude Course Direction KTS MPH feet Rate Location/Type
09:11AM 35.4278 -119.1267 132° Southeast 216 249 33,000  Level Los Angeles Center
09:12AM 35.3692 -119.1094 167° South 251 289 6,200 -12,180 Descending Los Angeles Center
09:13AM 35.0876 -118.6494 136° Southeast  Level FlightAware Approximate
09:13AM 35.3236 -119.0439 130° Southeast 250 288 8,300  Level Los Angeles Center
09:14AM 35.0026 -118.5455 129° Southeast  Level FlightAware Approximate
09:14AM 35.2711 -118.9681 130° Southeast 276 318 10,100  Level Los Angeles Center
09:15AM 34.9205 -118.4390 129° Southeast  Level FlightAware Approximate
09:16AM 34.8395 -118.3305 132° Southeast  Level FlightAware Approximate
09:16AM 35.1489 -118.7944 131° Southeast 339 390 13,900  Level Los Angeles Center
09:17AM 35.0869 -118.7050 130° Southeast 344 396 15,900 1,680 Climbing Los Angeles Center
09:18AM 35.0233 -118.6142 131° Southeast 351 404 17,400 1,200 Climbing Los Angeles Center
09:19AM 34.9556 -118.5200 131° Southeast 365 420 18,600 1,440 Climbing Los Angeles Center
09:20AM 34.8697 -118.3992 131° Southeast 376 433 20,700 1,560 Climbing Los Angeles Center
09:21AM 34.8008 -118.3036 131° Southeast 379 436 21,800 1,020 Climbing Los Angeles Center
09:22AM 34.7303 -118.2036 131° Southeast 390 449 22,800 960 Climbing Los Angeles Center
09:23AM 34.6569 -118.1025 131° Southeast 400 460 23,800 900 Climbing Los Angeles Center
09:24AM 34.6414 -117.9744 98° East 400 460 24,700 540 Climbing Los Angeles Center
09:25AM 34.6564 -117.8400 82° East 404 465 25,000 600 Climbing Los Angeles Center
09:26AM 34.6736 -117.6711 83° East 422 486 26,000 960 Climbing Los Angeles Center
09:27AM 34.6878 -117.5328 83° East 419 482 27,000 960 Climbing Los Angeles Center
09:28AM 34.7031 -117.3972 82° East 411 473 28,000 900 Climbing Los Angeles Center
09:29AM 34.7411 -117.2703 70° East 404 465 28,900 660 Climbing Los Angeles Center
09:30AM 34.7725 -117.1692 69° East 402 463 29,400 540 Climbing Los Angeles Center
09:31AM 34.8375 -117.0261 61° Northeast 412 474 30,000 540 Climbing Los Angeles Center
09:32AM 34.9092 -116.9208 50° Northeast 406 467 30,500 480 Climbing Los Angeles Center
09:33AM 34.9825 -116.8136 50° Northeast 412 474 31,000 480 Climbing Los Angeles Center
09:34AM 35.0706 -116.6856 50° Northeast 413 475 31,600 540 Climbing Los Angeles Center
09:35AM 35.1431 -116.5758 51° Northeast 414 476 32,100 540 Climbing Los Angeles Center
09:36AM 35.2167 -116.4664 51° Northeast 417 480 32,700 360 Climbing Los Angeles Center
09:38AM 35.2892 -116.3583 51° Northeast 412 474 33,000 120 Climbing Los Angeles Center
09:39AM 35.3525 -116.2025 63° Northeast 428 493 33,000  Level Los Angeles Center
09:40AM 35.4056 -116.0706 64° Northeast 431 496 33,000  Level Los Angeles Center
09:41AM 35.4592 -115.9381 64° Northeast 433 498 33,000  Level Los Angeles Center
09:42AM 35.5239 -115.7833 63° Northeast 433 498 33,000  Level Los Angeles Center
09:43AM 35.5778 -115.6528 63° Northeast 431 496 33,000  Level Los Angeles Center
09:44AM 35.6314 -115.5192 64° Northeast 435 501 33,000  Level Los Angeles Center
09:45AM 35.6850 -115.3872 63° Northeast 434 499 33,000  Level Los Angeles Center
09:46AM 35.7389 -115.2544 63° Northeast 436 502 33,000  Level Los Angeles Center
09:47AM 35.7892 -115.1222 65° Northeast 430 495 33,000  Level Los Angeles Center
09:48AM 35.8436 -114.9886 63° Northeast 437 503 33,000  Level Los Angeles Center
09:49AM 35.9061 -114.8269 64° Northeast 437 503 33,000  Level Los Angeles Center
09:50AM 35.9600 -114.6911 64° Northeast 442 509 33,000  Level Los Angeles Center
09:51AM 36.0128 -114.5567 64° Northeast 439 505 33,000  Level Los Angeles Center
09:52AM 36.0664 -114.4208 64° Northeast 441 507 33,000  Level Los Angeles Center
09:53AM 36.1194 -114.2844 64° Northeast 441 507 33,000  Level Los Angeles Center
09:54AM 36.1731 -114.1478 64° Northeast 442 509 33,000  Level Los Angeles Center
09:55AM 36.2353 -113.9828 65° Northeast 442 509 33,000  Level Los Angeles Center
09:56AM 36.2997 -113.8183 64° Northeast 443 510 33,000  Level Los Angeles Center
09:57AM 36.3519 -113.6797 65° Northeast 444 511 33,000  Level Los Angeles Center
09:58AM 36.4044 -113.5411 65° Northeast 444 511 33,000  Level Los Angeles Center
09:59AM 36.4592 -113.4008 64° Northeast 449 517 33,000  Level Los Angeles Center
10:00AM 36.5061 -113.2733 65° Northeast 450 518 33,000  Level Los Angeles Center
10:01AM 36.5694 -113.1039 65° Northeast 453 521 33,000  Level Los Angeles Center
10:02AM 36.6125 -112.9908 65° Northeast 454 522 33,000  Level Los Angeles Center
10:03AM 36.6758 -112.8192 65° Northeast 456 525 33,000  Level Los Angeles Center
10:04AM 36.7286 -112.6767 65° Northeast 456 525 33,000  Level Los Angeles Center
10:06AM 36.7808 -112.5342 65° Northeast 456 525 33,000  Level Los Angeles Center
10:07AM 36.8333 -112.3933 65° Northeast 452 520 33,000  Level Los Angeles Center
10:08AM 36.8947 -112.2225 66° East 452 520 33,000  Level Los Angeles Center
10:09AM 36.9464 -112.0808 65° Northeast 450 518 33,000  Level Los Angeles Center
10:09AM 36.9764 -111.9964 66° East 451 519 33,000  Level Denver Center
10:10AM 37.0289 -111.8511 66° East 456 525 33,000  Level Denver Center
10:11AM 37.0794 -111.7078 66° East 455 524 33,000  Level Denver Center
10:12AM 37.1314 -111.5653 65° Northeast 454 522 33,000  Level Denver Center
10:13AM 37.1831 -111.4214 66° East 453 521 33,000  Level Denver Center
10:14AM 37.2328 -111.2775 67° East 453 521 33,000  Level Denver Center
10:15AM 37.2842 -111.1328 66° East 456 525 33,000  Level Denver Center
10:16AM 37.3444 -110.9586 66° East 456 525 33,000  Level Denver Center
10:17AM 37.3944 -110.8128 67° East 455 524 33,000  Level Denver Center
10:18AM 37.4458 -110.6667 66° East 459 528 33,000  Level Denver Center
10:19AM 37.4953 -110.5225 67° East 461 531 33,000  Level Denver Center
10:20AM 37.5517 -110.3569 67° East 462 532 33,000  Level Denver Center
10:21AM 37.6003 -110.2144 67° East 462 532 33,000  Level Denver Center
10:23AM 37.6575 -110.0489 66° East 460 529 33,000  Level Denver Center
10:24AM 37.7053 -109.9067 67° East 459 528 33,000  Level Denver Center
10:25AM 37.7531 -109.7625 67° East 461 531 33,000  Level Denver Center
10:26AM 37.8092 -109.5944 67° East 464 534 33,000  Level Denver Center
10:27AM 37.8569 -109.4514 67° East 462 532 33,000  Level Denver Center
10:28AM 37.9119 -109.2822 68° East 464 534 33,000  Level Denver Center
10:29AM 37.9606 -109.1361 67° East 467 537 33,000  Level Denver Center
10:30AM 38.0156 -108.9686 67° East 463 533 33,000  Level Denver Center
10:31AM 38.0619 -108.8228 68° East 466 536 33,000  Level Denver Center
10:32AM 38.1100 -108.6747 68° East 471 542 33,000  Level Denver Center
10:33AM 38.1647 -108.5031 68° East 470 541 33,000  Level Denver Center
10:34AM 38.2117 -108.3583 68° East 468 539 33,000  Level Denver Center
10:35AM 38.2661 -108.1853 68° East 470 541 33,000  Level Denver Center
10:36AM 38.3119 -108.0394 68° East 465 535 33,000  Level Denver Center
10:37AM 38.3669 -107.8669 68° East 470 541 33,000 -120 Level Denver Center
10:38AM 38.4133 -107.7181 68° East 473 544 32,800 -720 Descending Denver Center
10:39AM 38.4742 -107.5472 65° Northeast 474 545 31,600 -900 Descending Denver Center
10:40AM 38.5372 -107.4067 60° Northeast 476 548 31,000 -300 Descending Denver Center
10:41AM 38.6075 -107.2503 60° Northeast 459 528 31,000  Level Denver Center
10:42AM 38.6625 -107.1231 61° Northeast 459 528 31,000  Level Denver Center
10:43AM 38.7258 -106.9836 60° Northeast 455 524 31,000  Level Denver Center
10:44AM 38.7986 -106.8156 61° Northeast 452 520 31,000  Level Denver Center
10:45AM 38.8608 -106.6756 60° Northeast 454 522 31,000 -420 Level Denver Center
10:46AM 38.9239 -106.5358 60° Northeast 451 519 30,100 -1,020 Descending Denver Center
10:47AM 39.0089 -106.3536 59° Northeast 461 531 28,800 -1,140 Descending Denver Center
10:49AM 39.0714 -106.2169 59° Northeast 464 534 27,800 -900 Descending Denver Center
10:50AM 39.1453 -106.0525 60° Northeast 463 533 27,000 -1,260 Descending Denver Center
10:51AM 39.2069 -105.9131 60° Northeast 453 521 25,300 -1,740 Descending Denver Center
10:52AM 39.2533 -105.8047 61° Northeast 438 504 23,500 -2,100 Descending Denver Center
10:53AM 39.3228 -105.6461 60° Northeast 424 488 21,000 -2,040 Descending Denver Center
10:54AM 39.3797 -105.5161 60° Northeast 420 483 19,300 -1,620 Descending Denver Center
10:55AM 39.3994 -105.3636 80° East 374 430 17,700 -1,500 Descending Denver Center
10:56AM 39.4203 -105.2494 77° East 345 397 16,200 -1,560 Descending Denver Center
10:57AM 39.5069 -105.2111 19° North 310 357 14,500 -1,380 Descending Denver Center
10:58AM 39.5819 -105.1853 15° North 283 326 13,400 -780 Descending Denver Center
10:59AM 39.6450 -105.1700 11° North 275 316 13,000 -300 Descending Denver Center
11:00AM 39.7333 -105.1406 14° North 271 312 12,800 -960 Descending Denver Center
11:01AM 39.7839 -105.0681 48° Northeast 269 310 11,100 -1,380 Descending Denver Center
11:02AM 39.8256 -105.0075 48° Northeast 266 306 10,000 -1,200 Descending Denver Center
11:03AM 39.8453 -104.9211 73° East 211 243 8,700 -1,380 Descending Denver Center
11:04AM 39.8408 -104.8511 95° East 185 213 7,200 -1,500 Descending Denver Center